Riverside, CA (92501)

2:50 AM PDT on July 28, 2016 (GMT -0700)
Wood Streets - SE | | Change Station

Elev 869 ft 33.96 °N, 117.39 °W | Updated 15 seconds ago

Clear
Clear
73.6 °F
Feels Like 77 °F
N
0.0
Wind Variable Wind from East
Gusts 0.0 mph

Today
High -- | Low -- °F
--% Chance of Precip.
Yesterday
High -- | Low -- °F
Precip. -- in
Pressure 29.85 in
Visibility 10.0 miles
Clouds Clear
Heat Index 77 °F
Dew Point 51 °F
Humidity 45%
Rainfall 0.00 in
Snow Depth Not available.
5:58 AM 7:52 PM
Waning Crescent, 34% visible
METAR KRAL 280853Z AUTO 00000KT 10SM CLR 25/07 A2991 RMK AO2 SLP108 T02500067 58000
Pressure 29.85 in
Visibility 10.0 miles
Clouds Clear
Heat Index 77 °F
Dew Point 51 °F
Humidity 45%
Rainfall 0.00 in
Snow Depth Not available.
5:58 AM 7:52 PM
Waning Crescent, 34% visible
METAR KRAL 280853Z AUTO 00000KT 10SM CLR 25/07 A2991 RMK AO2 SLP108 T02500067 58000

10-Day Weather Forecast

Almanac

Astronomy

Jul. 28, 2016 Rise Set
Actual Time
Civil Twilight
Nautical Twilight
Astronomical Twilight
Moon
Length of Visible Light
Length of Day
Tomorrow will be .
, % of the Moon is Illuminated

Today's Extremes

State Highs State Lows

Community

WunderPhotos

Upload Photos

1,928,070 photos uploaded!

WunderBlog® & News

Nearby

Air Quality

  Air Quality AQ Index Pollutant
Not available.

Snow Depth

Station Depth Elevation

Earthquake Activity

City Distance Mag. Time & Date
Minimum magnitude displayed is 2.5.

Coastal Water Temperatures

Place Temperature

Stations

Nearby Weather Stations

Station Location Temp. Windchill Dew Point Humidity Wind Precip. Elev Updated Type
                   

Watches & Warnings

There are currently no watches in effect.